sensor_id;sensor_type;location;lat;lon;timestamp;P1;durP1;ratioP1;P2;durP2;ratioP2
22146;SDS011;13074;48.298;14.424;2023-02-14T00:00:36;96.93;;;31.87;;
22146;SDS011;13074;48.298;14.424;2023-02-14T00:03:03;474.27;;;50.53;;
22146;SDS011;13074;48.298;14.424;2023-02-14T00:08:54;371.00;;;42.87;;
22146;SDS011;13074;48.298;14.424;2023-02-14T00:11:21;537.93;;;56.23;;
22146;SDS011;13074;48.298;14.424;2023-02-14T00:13:48;810.47;;;100.07;;
22146;SDS011;13074;48.298;14.424;2023-02-14T00:16:29;623.67;;;74.60;;
22146;SDS011;13074;48.298;14.424;2023-02-14T00:18:57;472.50;;;68.23;;
22146;SDS011;13074;48.298;14.424;2023-02-14T00:21:30;515.90;;;60.17;;
22146;SDS011;13074;48.298;14.424;2023-02-14T00:24:01;420.13;;;57.50;;
22146;SDS011;13074;48.298;14.424;2023-02-14T00:26:28;498.20;;;64.97;;
22146;SDS011;13074;48.298;14.424;2023-02-14T00:28:55;559.27;;;73.47;;
22146;SDS011;13074;48.298;14.424;2023-02-14T00:31:23;533.53;;;54.50;;
22146;SDS011;13074;48.298;14.424;2023-02-14T00:33:50;490.80;;;52.53;;
22146;SDS011;13074;48.298;14.424;2023-02-14T00:36:17;567.30;;;53.23;;
22146;SDS011;13074;48.298;14.424;2023-02-14T00:38:45;388.50;;;47.23;;
22146;SDS011;13074;48.298;14.424;2023-02-14T00:41:14;247.80;;;40.27;;
22146;SDS011;13074;48.298;14.424;2023-02-14T00:47:06;359.47;;;44.00;;
22146;SDS011;13074;48.298;14.424;2023-02-14T00:49:33;390.30;;;45.00;;
22146;SDS011;13074;48.298;14.424;2023-02-14T00:52:00;504.03;;;47.73;;
22146;SDS011;13074;48.298;14.424;2023-02-14T00:54:27;401.20;;;46.37;;
22146;SDS011;13074;48.298;14.424;2023-02-14T01:00:19;326.20;;;40.33;;
22146;SDS011;13074;48.298;14.424;2023-02-14T01:02:46;258.77;;;36.83;;
22146;SDS011;13074;48.298;14.424;2023-02-14T01:05:14;93.07;;;32.90;;
22146;SDS011;13074;48.298;14.424;2023-02-14T01:07:41;157.50;;;35.67;;
22146;SDS011;13074;48.298;14.424;2023-02-14T01:10:08;244.17;;;36.60;;
22146;SDS011;13074;48.298;14.424;2023-02-14T01:12:36;173.93;;;31.70;;
22146;SDS011;13074;48.298;14.424;2023-02-14T01:15:03;214.93;;;37.13;;
22146;SDS011;13074;48.298;14.424;2023-02-14T01:17:32;166.23;;;34.37;;
22146;SDS011;13074;48.298;14.424;2023-02-14T01:20:00;314.53;;;41.50;;
22146;SDS011;13074;48.298;14.424;2023-02-14T01:22:27;388.00;;;46.47;;
22146;SDS011;13074;48.298;14.424;2023-02-14T01:24:55;522.87;;;51.70;;
22146;SDS011;13074;48.298;14.424;2023-02-14T01:27:22;221.47;;;40.43;;
22146;SDS011;13074;48.298;14.424;2023-02-14T01:29:49;323.43;;;41.20;;
22146;SDS011;13074;48.298;14.424;2023-02-14T01:32:36;313.07;;;39.07;;
22146;SDS011;13074;48.298;14.424;2023-02-14T01:35:03;361.90;;;37.37;;
22146;SDS011;13074;48.298;14.424;2023-02-14T01:37:30;216.67;;;34.57;;
22146;SDS011;13074;48.298;14.424;2023-02-14T01:39:57;306.10;;;38.30;;
22146;SDS011;13074;48.298;14.424;2023-02-14T01:42:25;402.53;;;43.73;;
22146;SDS011;13074;48.298;14.424;2023-02-14T01:44:54;259.43;;;36.57;;
22146;SDS011;13074;48.298;14.424;2023-02-14T01:47:26;205.67;;;35.33;;
22146;SDS011;13074;48.298;14.424;2023-02-14T01:49:59;301.13;;;38.23;;
22146;SDS011;13074;48.298;14.424;2023-02-14T01:52:30;177.23;;;32.60;;
22146;SDS011;13074;48.298;14.424;2023-02-14T01:55:03;133.87;;;29.27;;
22146;SDS011;13074;48.298;14.424;2023-02-14T01:57:34;38.17;;;20.33;;
22146;SDS011;13074;48.298;14.424;2023-02-14T02:00:05;38.97;;;17.43;;
22146;SDS011;13074;48.298;14.424;2023-02-14T02:02:50;31.17;;;14.73;;
22146;SDS011;13074;48.298;14.424;2023-02-14T02:05:19;26.33;;;14.30;;
22146;SDS011;13074;48.298;14.424;2023-02-14T02:07:48;27.13;;;14.33;;
22146;SDS011;13074;48.298;14.424;2023-02-14T02:10:16;30.87;;;14.20;;
22146;SDS011;13074;48.298;14.424;2023-02-14T02:12:44;33.03;;;14.93;;
22146;SDS011;13074;48.298;14.424;2023-02-14T02:15:11;170.43;;;26.70;;
22146;SDS011;13074;48.298;14.424;2023-02-14T02:17:41;96.97;;;25.73;;
22146;SDS011;13074;48.298;14.424;2023-02-14T02:20:27;55.13;;;22.90;;
22146;SDS011;13074;48.298;14.424;2023-02-14T02:23:29;41.67;;;22.00;;
22146;SDS011;13074;48.298;14.424;2023-02-14T02:29:38;134.63;;;23.70;;
22146;SDS011;13074;48.298;14.424;2023-02-14T02:32:39;32.43;;;17.53;;
22146;SDS011;13074;48.298;14.424;2023-02-14T02:35:42;467.67;;;42.00;;
22146;SDS011;13074;48.298;14.424;2023-02-14T02:38:27;270.73;;;32.33;;
22146;SDS011;13074;48.298;14.424;2023-02-14T02:41:07;57.67;;;20.67;;
22146;SDS011;13074;48.298;14.424;2023-02-14T02:43:43;508.30;;;42.97;;
22146;SDS011;13074;48.298;14.424;2023-02-14T02:46:19;128.20;;;24.63;;
22146;SDS011;13074;48.298;14.424;2023-02-14T02:49:11;26.63;;;15.37;;
22146;SDS011;13074;48.298;14.424;2023-02-14T02:52:06;17.80;;;9.67;;
22146;SDS011;13074;48.298;14.424;2023-02-14T02:54:57;18.80;;;10.60;;
22146;SDS011;13074;48.298;14.424;2023-02-14T02:57:29;22.40;;;11.77;;
22146;SDS011;13074;48.298;14.424;2023-02-14T03:00:00;27.20;;;13.93;;
22146;SDS011;13074;48.298;14.424;2023-02-14T03:02:30;24.07;;;13.43;;
22146;SDS011;13074;48.298;14.424;2023-02-14T03:05:19;20.93;;;11.13;;
22146;SDS011;13074;48.298;14.424;2023-02-14T03:07:47;19.27;;;10.27;;
22146;SDS011;13074;48.298;14.424;2023-02-14T03:10:16;20.23;;;10.33;;
22146;SDS011;13074;48.298;14.424;2023-02-14T03:12:52;21.10;;;10.60;;
22146;SDS011;13074;48.298;14.424;2023-02-14T03:18:42;18.47;;;9.77;;
22146;SDS011;13074;48.298;14.424;2023-02-14T03:21:20;16.80;;;10.43;;
22146;SDS011;13074;48.298;14.424;2023-02-14T03:23:55;18.20;;;9.90;;
22146;SDS011;13074;48.298;14.424;2023-02-14T03:26:31;20.23;;;10.60;;
22146;SDS011;13074;48.298;14.424;2023-02-14T03:29:05;20.43;;;9.97;;
22146;SDS011;13074;48.298;14.424;2023-02-14T03:31:41;17.60;;;9.80;;
22146;SDS011;13074;48.298;14.424;2023-02-14T03:34:19;19.03;;;10.03;;
22146;SDS011;13074;48.298;14.424;2023-02-14T03:36:53;21.37;;;10.63;;
22146;SDS011;13074;48.298;14.424;2023-02-14T03:39:25;17.33;;;10.00;;
22146;SDS011;13074;48.298;14.424;2023-02-14T03:41:59;26.10;;;11.20;;
22146;SDS011;13074;48.298;14.424;2023-02-14T03:44:29;21.47;;;10.33;;
22146;SDS011;13074;48.298;14.424;2023-02-14T03:47:00;17.43;;;9.47;;
22146;SDS011;13074;48.298;14.424;2023-02-14T03:49:32;20.60;;;10.83;;
22146;SDS011;13074;48.298;14.424;2023-02-14T03:52:02;19.37;;;10.20;;
22146;SDS011;13074;48.298;14.424;2023-02-14T03:54:32;18.07;;;9.83;;
22146;SDS011;13074;48.298;14.424;2023-02-14T03:57:03;23.37;;;12.97;;
22146;SDS011;13074;48.298;14.424;2023-02-14T03:59:37;28.67;;;17.23;;
22146;SDS011;13074;48.298;14.424;2023-02-14T04:02:05;21.73;;;12.30;;
22146;SDS011;13074;48.298;14.424;2023-02-14T04:04:37;23.97;;;11.73;;
22146;SDS011;13074;48.298;14.424;2023-02-14T04:07:10;22.27;;;12.03;;
22146;SDS011;13074;48.298;14.424;2023-02-14T04:09:41;16.63;;;9.03;;
22146;SDS011;13074;48.298;14.424;2023-02-14T04:12:08;18.20;;;9.00;;
22146;SDS011;13074;48.298;14.424;2023-02-14T04:14:36;22.60;;;11.73;;
22146;SDS011;13074;48.298;14.424;2023-02-14T04:17:03;17.90;;;9.83;;
22146;SDS011;13074;48.298;14.424;2023-02-14T04:19:50;17.70;;;10.33;;
22146;SDS011;13074;48.298;14.424;2023-02-14T04:22:17;14.47;;;8.87;;
22146;SDS011;13074;48.298;14.424;2023-02-14T04:24:46;19.23;;;8.80;;
22146;SDS011;13074;48.298;14.424;2023-02-14T04:27:14;16.97;;;9.47;;
22146;SDS011;13074;48.298;14.424;2023-02-14T04:29:41;15.97;;;9.20;;
22146;SDS011;13074;48.298;14.424;2023-02-14T04:32:10;18.83;;;9.87;;
22146;SDS011;13074;48.298;14.424;2023-02-14T04:34:39;26.97;;;14.63;;
22146;SDS011;13074;48.298;14.424;2023-02-14T04:37:06;162.90;;;28.00;;
22146;SDS011;13074;48.298;14.424;2023-02-14T04:39:34;168.70;;;31.87;;
22146;SDS011;13074;48.298;14.424;2023-02-14T04:42:04;75.43;;;22.17;;
22146;SDS011;13074;48.298;14.424;2023-02-14T04:44:31;32.27;;;16.20;;
22146;SDS011;13074;48.298;14.424;2023-02-14T04:46:59;18.47;;;9.83;;
22146;SDS011;13074;48.298;14.424;2023-02-14T04:49:27;16.20;;;9.67;;
22146;SDS011;13074;48.298;14.424;2023-02-14T04:51:54;16.43;;;9.40;;
22146;SDS011;13074;48.298;14.424;2023-02-14T04:54:21;22.00;;;10.37;;
22146;SDS011;13074;48.298;14.424;2023-02-14T04:56:48;20.47;;;10.10;;
22146;SDS011;13074;48.298;14.424;2023-02-14T04:59:17;29.93;;;13.80;;
22146;SDS011;13074;48.298;14.424;2023-02-14T05:01:44;49.87;;;22.50;;
22146;SDS011;13074;48.298;14.424;2023-02-14T05:04:12;60.03;;;23.87;;
22146;SDS011;13074;48.298;14.424;2023-02-14T05:06:40;63.97;;;24.03;;
22146;SDS011;13074;48.298;14.424;2023-02-14T05:09:07;39.70;;;19.27;;
22146;SDS011;13074;48.298;14.424;2023-02-14T05:11:34;36.23;;;17.53;;
22146;SDS011;13074;48.298;14.424;2023-02-14T05:14:01;39.97;;;18.13;;
22146;SDS011;13074;48.298;14.424;2023-02-14T05:16:30;45.93;;;18.50;;
22146;SDS011;13074;48.298;14.424;2023-02-14T05:18:57;186.80;;;24.67;;
22146;SDS011;13074;48.298;14.424;2023-02-14T05:21:24;32.47;;;16.10;;
22146;SDS011;13074;48.298;14.424;2023-02-14T05:23:52;39.83;;;17.10;;
22146;SDS011;13074;48.298;14.424;2023-02-14T05:26:19;41.13;;;16.03;;
22146;SDS011;13074;48.298;14.424;2023-02-14T05:28:46;69.07;;;18.00;;
22146;SDS011;13074;48.298;14.424;2023-02-14T05:31:14;37.43;;;15.60;;
22146;SDS011;13074;48.298;14.424;2023-02-14T05:33:42;54.53;;;15.57;;
22146;SDS011;13074;48.298;14.424;2023-02-14T05:36:09;36.33;;;16.33;;
22146;SDS011;13074;48.298;14.424;2023-02-14T05:38:36;32.23;;;13.17;;
22146;SDS011;13074;48.298;14.424;2023-02-14T05:41:04;27.93;;;13.03;;
22146;SDS011;13074;48.298;14.424;2023-02-14T05:43:31;23.63;;;11.80;;
22146;SDS011;13074;48.298;14.424;2023-02-14T05:45:58;24.70;;;13.10;;
22146;SDS011;13074;48.298;14.424;2023-02-14T05:48:25;24.50;;;13.00;;
22146;SDS011;13074;48.298;14.424;2023-02-14T05:50:54;28.90;;;14.07;;
22146;SDS011;13074;48.298;14.424;2023-02-14T05:53:21;35.90;;;16.10;;
22146;SDS011;13074;48.298;14.424;2023-02-14T05:55:48;25.13;;;12.73;;
22146;SDS011;13074;48.298;14.424;2023-02-14T05:58:15;27.63;;;14.33;;
22146;SDS011;13074;48.298;14.424;2023-02-14T06:00:42;28.13;;;12.70;;
22146;SDS011;13074;48.298;14.424;2023-02-14T06:03:09;30.47;;;15.27;;
22146;SDS011;13074;48.298;14.424;2023-02-14T06:05:36;37.60;;;16.50;;
22146;SDS011;13074;48.298;14.424;2023-02-14T06:08:05;36.37;;;15.07;;
22146;SDS011;13074;48.298;14.424;2023-02-14T06:10:32;31.03;;;14.73;;
22146;SDS011;13074;48.298;14.424;2023-02-14T06:12:59;36.37;;;16.17;;
22146;SDS011;13074;48.298;14.424;2023-02-14T06:15:27;68.43;;;22.33;;
22146;SDS011;13074;48.298;14.424;2023-02-14T06:17:54;52.70;;;21.37;;
22146;SDS011;13074;48.298;14.424;2023-02-14T06:20:22;72.80;;;27.67;;
22146;SDS011;13074;48.298;14.424;2023-02-14T06:22:50;82.40;;;29.43;;
22146;SDS011;13074;48.298;14.424;2023-02-14T06:25:19;79.30;;;34.20;;
22146;SDS011;13074;48.298;14.424;2023-02-14T06:27:46;94.13;;;33.63;;
22146;SDS011;13074;48.298;14.424;2023-02-14T06:30:14;94.17;;;34.20;;
22146;SDS011;13074;48.298;14.424;2023-02-14T06:32:43;93.63;;;34.03;;
22146;SDS011;13074;48.298;14.424;2023-02-14T06:35:10;136.20;;;35.90;;
22146;SDS011;13074;48.298;14.424;2023-02-14T06:37:37;107.90;;;34.97;;
22146;SDS011;13074;48.298;14.424;2023-02-14T06:40:06;171.10;;;37.50;;
22146;SDS011;13074;48.298;14.424;2023-02-14T06:42:35;178.13;;;36.00;;
22146;SDS011;13074;48.298;14.424;2023-02-14T06:45:03;262.87;;;37.00;;
22146;SDS011;13074;48.298;14.424;2023-02-14T06:47:31;334.67;;;40.87;;
22146;SDS011;13074;48.298;14.424;2023-02-14T06:49:58;280.63;;;41.17;;
22146;SDS011;13074;48.298;14.424;2023-02-14T06:52:25;286.03;;;40.23;;
22146;SDS011;13074;48.298;14.424;2023-02-14T06:54:52;209.27;;;36.20;;
22146;SDS011;13074;48.298;14.424;2023-02-14T06:57:20;467.83;;;47.50;;
22146;SDS011;13074;48.298;14.424;2023-02-14T06:59:48;480.43;;;49.23;;
22146;SDS011;13074;48.298;14.424;2023-02-14T07:02:15;717.63;;;61.93;;
22146;SDS011;13074;48.298;14.424;2023-02-14T07:04:42;615.10;;;54.93;;
22146;SDS011;13074;48.298;14.424;2023-02-14T07:07:10;662.10;;;59.70;;
22146;SDS011;13074;48.298;14.424;2023-02-14T07:09:37;707.43;;;60.70;;
22146;SDS011;13074;48.298;14.424;2023-02-14T07:12:04;655.07;;;59.63;;
22146;SDS011;13074;48.298;14.424;2023-02-14T07:14:32;829.87;;;70.33;;
22146;SDS011;13074;48.298;14.424;2023-02-14T07:17:00;828.83;;;71.23;;
22146;SDS011;13074;48.298;14.424;2023-02-14T07:19:27;1002.57;;;79.83;;
22146;SDS011;13074;48.298;14.424;2023-02-14T07:21:54;490.03;;;47.23;;
22146;SDS011;13074;48.298;14.424;2023-02-14T07:24:22;860.50;;;71.13;;
22146;SDS011;13074;48.298;14.424;2023-02-14T07:26:49;711.10;;;62.53;;
22146;SDS011;13074;48.298;14.424;2023-02-14T07:29:16;372.17;;;44.67;;
22146;SDS011;13074;48.298;14.424;2023-02-14T07:31:43;668.43;;;59.83;;
22146;SDS011;13074;48.298;14.424;2023-02-14T07:34:12;737.80;;;62.93;;
22146;SDS011;13074;48.298;14.424;2023-02-14T07:36:39;648.20;;;59.20;;
22146;SDS011;13074;48.298;14.424;2023-02-14T07:39:08;596.13;;;55.47;;
22146;SDS011;13074;48.298;14.424;2023-02-14T07:41:35;418.83;;;44.83;;
22146;SDS011;13074;48.298;14.424;2023-02-14T07:44:02;969.30;;;77.23;;
22146;SDS011;13074;48.298;14.424;2023-02-14T07:46:30;1014.10;;;81.33;;
22146;SDS011;13074;48.298;14.424;2023-02-14T07:48:57;971.13;;;74.40;;
22146;SDS011;13074;48.298;14.424;2023-02-14T07:51:25;1048.10;;;76.67;;
22146;SDS011;13074;48.298;14.424;2023-02-14T07:53:53;292.43;;;39.43;;
22146;SDS011;13074;48.298;14.424;2023-02-14T07:56:20;752.00;;;64.33;;
22146;SDS011;13074;48.298;14.424;2023-02-14T07:58:47;437.87;;;45.27;;
22146;SDS011;13074;48.298;14.424;2023-02-14T08:01:15;625.33;;;54.47;;
22146;SDS011;13074;48.298;14.424;2023-02-14T08:03:42;527.30;;;51.50;;
22146;SDS011;13074;48.298;14.424;2023-02-14T08:06:13;649.63;;;53.03;;
22146;SDS011;13074;48.298;14.424;2023-02-14T08:08:42;249.37;;;36.10;;
22146;SDS011;13074;48.298;14.424;2023-02-14T08:11:10;155.70;;;32.67;;
22146;SDS011;13074;48.298;14.424;2023-02-14T08:13:57;252.30;;;38.83;;
22146;SDS011;13074;48.298;14.424;2023-02-14T08:16:26;303.23;;;42.93;;
22146;SDS011;13074;48.298;14.424;2023-02-14T08:18:53;372.70;;;45.43;;
22146;SDS011;13074;48.298;14.424;2023-02-14T08:21:21;256.13;;;39.83;;
22146;SDS011;13074;48.298;14.424;2023-02-14T08:23:49;205.63;;;37.40;;
22146;SDS011;13074;48.298;14.424;2023-02-14T08:26:16;187.00;;;35.50;;
22146;SDS011;13074;48.298;14.424;2023-02-14T08:28:44;158.13;;;35.53;;
22146;SDS011;13074;48.298;14.424;2023-02-14T08:31:11;178.40;;;33.27;;
22146;SDS011;13074;48.298;14.424;2023-02-14T08:33:38;329.97;;;36.73;;
22146;SDS011;13074;48.298;14.424;2023-02-14T08:36:07;277.70;;;37.20;;
22146;SDS011;13074;48.298;14.424;2023-02-14T08:38:34;159.23;;;31.37;;
22146;SDS011;13074;48.298;14.424;2023-02-14T08:41:03;401.97;;;41.23;;
22146;SDS011;13074;48.298;14.424;2023-02-14T08:43:30;239.23;;;35.17;;
22146;SDS011;13074;48.298;14.424;2023-02-14T08:45:57;102.33;;;31.63;;
22146;SDS011;13074;48.298;14.424;2023-02-14T08:48:25;109.80;;;28.83;;
22146;SDS011;13074;48.298;14.424;2023-02-14T08:50:52;71.50;;;26.53;;
22146;SDS011;13074;48.298;14.424;2023-02-14T08:53:20;155.77;;;27.83;;
22146;SDS011;13074;48.298;14.424;2023-02-14T08:55:47;127.40;;;28.67;;
22146;SDS011;13074;48.298;14.424;2023-02-14T08:58:16;153.47;;;28.30;;
22146;SDS011;13074;48.298;14.424;2023-02-14T09:00:43;278.17;;;33.30;;
22146;SDS011;13074;48.298;14.424;2023-02-14T09:03:10;223.20;;;29.57;;
22146;SDS011;13074;48.298;14.424;2023-02-14T09:05:37;307.47;;;31.87;;
22146;SDS011;13074;48.298;14.424;2023-02-14T09:08:04;64.07;;;22.17;;
22146;SDS011;13074;48.298;14.424;2023-02-14T09:10:32;529.60;;;44.33;;
22146;SDS011;13074;48.298;14.424;2023-02-14T09:12:59;625.50;;;49.53;;
22146;SDS011;13074;48.298;14.424;2023-02-14T09:15:27;151.03;;;33.63;;
22146;SDS011;13074;48.298;14.424;2023-02-14T09:17:55;85.87;;;24.00;;
22146;SDS011;13074;48.298;14.424;2023-02-14T09:20:22;145.00;;;32.50;;
22146;SDS011;13074;48.298;14.424;2023-02-14T09:22:49;107.57;;;32.47;;
22146;SDS011;13074;48.298;14.424;2023-02-14T09:25:16;138.40;;;33.40;;
22146;SDS011;13074;48.298;14.424;2023-02-14T09:27:43;132.77;;;33.83;;
22146;SDS011;13074;48.298;14.424;2023-02-14T09:30:11;137.87;;;34.37;;
22146;SDS011;13074;48.298;14.424;2023-02-14T09:32:40;122.23;;;33.23;;
22146;SDS011;13074;48.298;14.424;2023-02-14T09:35:08;92.20;;;31.87;;
22146;SDS011;13074;48.298;14.424;2023-02-14T09:37:35;143.60;;;33.53;;
22146;SDS011;13074;48.298;14.424;2023-02-14T09:40:02;129.90;;;32.47;;
22146;SDS011;13074;48.298;14.424;2023-02-14T09:45:19;97.10;;;33.30;;
22146;SDS011;13074;48.298;14.424;2023-02-14T09:47:50;129.90;;;33.17;;
22146;SDS011;13074;48.298;14.424;2023-02-14T09:50:22;152.50;;;34.87;;
22146;SDS011;13074;48.298;14.424;2023-02-14T09:52:54;151.60;;;33.10;;
22146;SDS011;13074;48.298;14.424;2023-02-14T09:55:25;95.50;;;33.20;;
22146;SDS011;13074;48.298;14.424;2023-02-14T09:58:02;423.10;;;45.43;;
22146;SDS011;13074;48.298;14.424;2023-02-14T10:00:34;157.53;;;34.43;;
22146;SDS011;13074;48.298;14.424;2023-02-14T10:03:11;458.73;;;44.50;;
22146;SDS011;13074;48.298;14.424;2023-02-14T10:05:57;416.40;;;42.87;;
22146;SDS011;13074;48.298;14.424;2023-02-14T10:08:40;574.20;;;51.33;;
22146;SDS011;13074;48.298;14.424;2023-02-14T10:11:19;618.93;;;54.30;;
22146;SDS011;13074;48.298;14.424;2023-02-14T10:13:50;124.60;;;34.83;;
22146;SDS011;13074;48.298;14.424;2023-02-14T10:16:22;604.20;;;58.37;;
22146;SDS011;13074;48.298;14.424;2023-02-14T10:18:55;140.30;;;40.50;;
22146;SDS011;13074;48.298;14.424;2023-02-14T10:21:28;228.80;;;41.90;;
22146;SDS011;13074;48.298;14.424;2023-02-14T10:23:59;241.17;;;41.57;;
22146;SDS011;13074;48.298;14.424;2023-02-14T10:26:32;177.33;;;43.63;;
22146;SDS011;13074;48.298;14.424;2023-02-14T10:29:02;412.60;;;52.50;;
22146;SDS011;13074;48.298;14.424;2023-02-14T10:31:36;202.53;;;43.50;;
22146;SDS011;13074;48.298;14.424;2023-02-14T10:34:11;259.27;;;49.47;;
22146;SDS011;13074;48.298;14.424;2023-02-14T10:36:51;268.77;;;51.27;;
22146;SDS011;13074;48.298;14.424;2023-02-14T10:39:34;425.07;;;53.43;;
22146;SDS011;13074;48.298;14.424;2023-02-14T10:42:15;191.67;;;45.53;;
22146;SDS011;13074;48.298;14.424;2023-02-14T10:44:50;232.43;;;49.50;;
22146;SDS011;13074;48.298;14.424;2023-02-14T10:47:27;147.67;;;48.43;;
22146;SDS011;13074;48.298;14.424;2023-02-14T10:50:05;138.40;;;47.93;;
22146;SDS011;13074;48.298;14.424;2023-02-14T10:52:43;245.37;;;49.63;;
22146;SDS011;13074;48.298;14.424;2023-02-14T10:55:21;133.63;;;47.00;;
22146;SDS011;13074;48.298;14.424;2023-02-14T10:57:54;209.63;;;45.03;;
22146;SDS011;13074;48.298;14.424;2023-02-14T11:00:23;167.57;;;42.57;;
22146;SDS011;13074;48.298;14.424;2023-02-14T11:02:55;165.93;;;42.73;;
22146;SDS011;13074;48.298;14.424;2023-02-14T11:05:26;338.67;;;47.30;;
22146;SDS011;13074;48.298;14.424;2023-02-14T11:07:58;262.20;;;45.17;;
22146;SDS011;13074;48.298;14.424;2023-02-14T11:10:26;184.27;;;41.87;;
22146;SDS011;13074;48.298;14.424;2023-02-14T11:12:56;184.03;;;43.87;;
22146;SDS011;13074;48.298;14.424;2023-02-14T11:15:24;138.93;;;42.87;;
22146;SDS011;13074;48.298;14.424;2023-02-14T11:18:12;151.67;;;42.93;;
22146;SDS011;13074;48.298;14.424;2023-02-14T11:20:58;265.67;;;48.13;;
22146;SDS011;13074;48.298;14.424;2023-02-14T11:23:27;118.70;;;47.27;;
22146;SDS011;13074;48.298;14.424;2023-02-14T11:25:58;225.73;;;51.00;;
22146;SDS011;13074;48.298;14.424;2023-02-14T11:28:26;279.23;;;53.40;;
22146;SDS011;13074;48.298;14.424;2023-02-14T11:30:53;168.30;;;48.37;;
22146;SDS011;13074;48.298;14.424;2023-02-14T11:33:22;269.47;;;52.60;;
22146;SDS011;13074;48.298;14.424;2023-02-14T11:35:54;409.57;;;54.47;;
22146;SDS011;13074;48.298;14.424;2023-02-14T11:38:26;151.23;;;47.30;;
22146;SDS011;13074;48.298;14.424;2023-02-14T11:40:56;175.50;;;43.70;;
22146;SDS011;13074;48.298;14.424;2023-02-14T11:43:31;186.03;;;44.97;;
22146;SDS011;13074;48.298;14.424;2023-02-14T11:46:05;395.73;;;49.93;;
22146;SDS011;13074;48.298;14.424;2023-02-14T11:48:37;200.17;;;44.03;;
22146;SDS011;13074;48.298;14.424;2023-02-14T11:51:06;232.37;;;50.50;;
22146;SDS011;13074;48.298;14.424;2023-02-14T11:53:39;370.67;;;51.57;;
22146;SDS011;13074;48.298;14.424;2023-02-14T11:56:11;318.53;;;51.13;;
22146;SDS011;13074;48.298;14.424;2023-02-14T11:58:39;216.23;;;49.70;;
22146;SDS011;13074;48.298;14.424;2023-02-14T12:01:12;758.43;;;66.30;;
22146;SDS011;13074;48.298;14.424;2023-02-14T12:03:49;280.50;;;47.47;;
22146;SDS011;13074;48.298;14.424;2023-02-14T12:06:23;193.63;;;45.40;;
22146;SDS011;13074;48.298;14.424;2023-02-14T12:11:38;384.60;;;51.40;;
22146;SDS011;13074;48.298;14.424;2023-02-14T12:14:07;447.20;;;53.97;;
22146;SDS011;13074;48.298;14.424;2023-02-14T12:16:47;788.10;;;72.37;;
22146;SDS011;13074;48.298;14.424;2023-02-14T12:19:23;259.43;;;44.80;;
22146;SDS011;13074;48.298;14.424;2023-02-14T12:22:00;327.80;;;45.93;;
22146;SDS011;13074;48.298;14.424;2023-02-14T12:24:30;133.30;;;40.27;;
22146;SDS011;13074;48.298;14.424;2023-02-14T12:27:03;132.37;;;41.03;;
22146;SDS011;13074;48.298;14.424;2023-02-14T12:29:45;229.80;;;44.93;;
22146;SDS011;13074;48.298;14.424;2023-02-14T12:32:19;147.40;;;39.80;;
22146;SDS011;13074;48.298;14.424;2023-02-14T12:34:48;139.97;;;37.00;;
22146;SDS011;13074;48.298;14.424;2023-02-14T12:37:20;173.97;;;32.73;;
22146;SDS011;13074;48.298;14.424;2023-02-14T12:40:10;248.33;;;39.97;;
22146;SDS011;13074;48.298;14.424;2023-02-14T12:42:47;158.53;;;30.60;;
22146;SDS011;13074;48.298;14.424;2023-02-14T12:45:31;123.17;;;32.07;;
22146;SDS011;13074;48.298;14.424;2023-02-14T12:48:13;142.37;;;33.83;;
22146;SDS011;13074;48.298;14.424;2023-02-14T12:50:49;167.27;;;32.30;;
22146;SDS011;13074;48.298;14.424;2023-02-14T12:53:26;133.67;;;34.53;;
22146;SDS011;13074;48.298;14.424;2023-02-14T12:56:17;183.37;;;35.97;;
22146;SDS011;13074;48.298;14.424;2023-02-14T12:58:54;160.10;;;35.03;;
22146;SDS011;13074;48.298;14.424;2023-02-14T13:01:39;116.23;;;38.83;;
22146;SDS011;13074;48.298;14.424;2023-02-14T13:07:26;279.83;;;47.03;;
22146;SDS011;13074;48.298;14.424;2023-02-14T13:10:10;174.20;;;43.97;;
22146;SDS011;13074;48.298;14.424;2023-02-14T13:12:43;217.07;;;46.27;;
22146;SDS011;13074;48.298;14.424;2023-02-14T13:15:18;404.90;;;56.03;;
22146;SDS011;13074;48.298;14.424;2023-02-14T13:17:54;139.53;;;45.60;;
22146;SDS011;13074;48.298;14.424;2023-02-14T13:23:16;154.77;;;46.97;;
22146;SDS011;13074;48.298;14.424;2023-02-14T13:25:50;251.30;;;47.13;;
22146;SDS011;13074;48.298;14.424;2023-02-14T13:28:21;236.20;;;49.03;;
22146;SDS011;13074;48.298;14.424;2023-02-14T13:30:49;328.07;;;50.97;;
22146;SDS011;13074;48.298;14.424;2023-02-14T13:33:22;372.27;;;50.93;;
22146;SDS011;13074;48.298;14.424;2023-02-14T13:35:53;263.37;;;44.43;;
22146;SDS011;13074;48.298;14.424;2023-02-14T13:38:23;263.73;;;46.67;;
22146;SDS011;13074;48.298;14.424;2023-02-14T13:40:53;175.70;;;41.00;;
22146;SDS011;13074;48.298;14.424;2023-02-14T13:46:16;196.90;;;40.50;;
22146;SDS011;13074;48.298;14.424;2023-02-14T13:48:58;217.27;;;43.00;;
22146;SDS011;13074;48.298;14.424;2023-02-14T13:51:42;420.60;;;44.60;;
22146;SDS011;13074;48.298;14.424;2023-02-14T13:54:20;351.07;;;44.67;;
22146;SDS011;13074;48.298;14.424;2023-02-14T13:57:00;286.03;;;44.27;;
22146;SDS011;13074;48.298;14.424;2023-02-14T13:59:30;308.63;;;46.50;;
22146;SDS011;13074;48.298;14.424;2023-02-14T14:04:56;314.87;;;47.80;;
22146;SDS011;13074;48.298;14.424;2023-02-14T14:07:25;343.37;;;43.47;;
22146;SDS011;13074;48.298;14.424;2023-02-14T14:09:58;239.60;;;42.33;;
22146;SDS011;13074;48.298;14.424;2023-02-14T14:12:41;151.67;;;42.00;;
22146;SDS011;13074;48.298;14.424;2023-02-14T14:15:18;264.73;;;46.03;;
22146;SDS011;13074;48.298;14.424;2023-02-14T14:20:46;238.83;;;45.67;;
22146;SDS011;13074;48.298;14.424;2023-02-14T14:26:03;998.10;;;81.03;;
22146;SDS011;13074;48.298;14.424;2023-02-14T14:29:01;804.47;;;66.53;;
22146;SDS011;13074;48.298;14.424;2023-02-14T14:31:35;1032.97;;;84.47;;
22146;SDS011;13074;48.298;14.424;2023-02-14T14:34:03;994.47;;;79.47;;
22146;SDS011;13074;48.298;14.424;2023-02-14T14:36:30;1088.63;;;84.10;;
22146;SDS011;13074;48.298;14.424;2023-02-14T14:38:57;1052.43;;;81.00;;
22146;SDS011;13074;48.298;14.424;2023-02-14T14:41:25;1339.60;;;98.67;;
22146;SDS011;13074;48.298;14.424;2023-02-14T14:43:55;1152.37;;;84.93;;
22146;SDS011;13074;48.298;14.424;2023-02-14T14:46:26;1027.27;;;80.50;;
22146;SDS011;13074;48.298;14.424;2023-02-14T14:48:54;1025.83;;;82.17;;
22146;SDS011;13074;48.298;14.424;2023-02-14T14:51:23;1373.73;;;97.77;;
22146;SDS011;13074;48.298;14.424;2023-02-14T14:53:53;1479.27;;;106.03;;
22146;SDS011;13074;48.298;14.424;2023-02-14T14:56:23;1127.63;;;83.70;;
22146;SDS011;13074;48.298;14.424;2023-02-14T14:58:52;496.73;;;51.17;;
22146;SDS011;13074;48.298;14.424;2023-02-14T15:01:29;811.90;;;74.10;;
22146;SDS011;13074;48.298;14.424;2023-02-14T15:04:08;1043.00;;;86.77;;